createdAt,value
2019-02-19T00:00:57.664Z,2.10
2019-02-19T00:03:38.092Z,2.10
2019-02-19T00:06:18.968Z,2.00
2019-02-19T00:08:59.822Z,2.00
2019-02-19T00:11:40.596Z,2.00
2019-02-19T00:14:21.313Z,2.00
2019-02-19T00:17:02.013Z,2.00
2019-02-19T00:19:42.822Z,1.90
2019-02-19T00:22:23.801Z,1.90
2019-02-19T00:25:04.605Z,1.90
2019-02-19T00:27:45.382Z,2.00
2019-02-19T00:30:26.169Z,2.00
2019-02-19T00:33:06.958Z,1.90
2019-02-19T00:35:47.694Z,1.90
2019-02-19T00:38:28.553Z,1.80
2019-02-19T00:41:09.379Z,1.80
2019-02-19T00:43:50.313Z,1.70
2019-02-19T00:46:31.201Z,1.70
2019-02-19T00:49:12.039Z,1.60
2019-02-19T00:51:52.909Z,1.60
2019-02-19T00:54:33.631Z,1.50
2019-02-19T00:57:14.329Z,1.50
2019-02-19T00:59:43.407Z,1.40
2019-02-19T01:02:12.369Z,1.40
2019-02-19T01:04:53.278Z,1.40
2019-02-19T01:07:34.133Z,1.40
2019-02-19T01:10:14.894Z,1.40
2019-02-19T01:12:55.922Z,1.40
2019-02-19T01:15:36.513Z,1.40
2019-02-19T01:18:17.283Z,1.50
2019-02-19T01:20:46.326Z,1.50
2019-02-19T01:23:34.472Z,1.50
2019-02-19T01:26:15.832Z,1.40
2019-02-19T01:28:58.272Z,1.40
2019-02-19T01:31:39.609Z,1.40
2019-02-19T01:34:20.492Z,1.50
2019-02-19T01:37:01.533Z,1.50
2019-02-19T01:39:42.214Z,1.40
2019-02-19T01:42:23.252Z,1.40
2019-02-19T01:45:03.867Z,1.30
2019-02-19T01:47:44.724Z,1.30
2019-02-19T01:50:25.557Z,1.30
2019-02-19T01:53:08.204Z,1.30
2019-02-19T01:55:49.406Z,1.30
2019-02-19T01:58:30.191Z,1.20
2019-02-19T02:01:11.166Z,1.10
2019-02-19T02:03:51.988Z,1.10
2019-02-19T02:06:33.041Z,1.10
2019-02-19T02:09:13.850Z,1.10
2019-02-19T02:11:54.617Z,1.10
2019-02-19T02:14:38.062Z,1.30
2019-02-19T02:17:19.057Z,1.40
2019-02-19T02:20:00.238Z,1.50
2019-02-19T02:22:40.958Z,1.60
2019-02-19T02:25:21.846Z,1.50
2019-02-19T02:28:02.610Z,1.40
2019-02-19T02:30:43.196Z,1.30
2019-02-19T02:33:23.930Z,1.20
2019-02-19T02:36:04.729Z,1.10
2019-02-19T02:38:45.994Z,1.00
2019-02-19T02:41:26.942Z,1.00
2019-02-19T02:44:07.804Z,1.10
2019-02-19T02:46:48.974Z,1.10
2019-02-19T02:49:29.877Z,1.20
2019-02-19T02:52:10.432Z,1.20
2019-02-19T02:54:51.309Z,1.30
2019-02-19T02:57:31.986Z,1.30
2019-02-19T03:00:12.866Z,1.40
2019-02-19T03:02:54.195Z,1.50
2019-02-19T03:05:36.623Z,1.50
2019-02-19T03:08:17.884Z,1.40
2019-02-19T03:10:58.678Z,1.40
2019-02-19T03:13:39.489Z,1.50
2019-02-19T03:16:20.334Z,1.60
2019-02-19T03:19:01.114Z,1.60
2019-02-19T03:21:41.816Z,1.50
2019-02-19T03:24:22.577Z,1.30
2019-02-19T03:27:03.418Z,1.20
2019-02-19T03:29:44.113Z,1.10
2019-02-19T03:32:24.814Z,1.10
2019-02-19T03:35:05.541Z,1.10
2019-02-19T03:37:46.389Z,1.20
2019-02-19T03:40:27.243Z,1.20
2019-02-19T03:43:07.877Z,1.10
2019-02-19T03:45:48.566Z,1.10
2019-02-19T03:48:29.413Z,1.10
2019-02-19T03:51:10.249Z,1.20
2019-02-19T03:53:51.160Z,1.20
2019-02-19T03:56:31.961Z,1.10
2019-02-19T04:01:57.425Z,1.00
2019-02-19T04:13:53.500Z,1.00
2019-02-19T04:43:37.341Z,1.20
2019-02-19T04:46:18.511Z,1.20
2019-02-19T04:48:59.488Z,1.30
2019-02-19T04:51:28.475Z,1.30
2019-02-19T04:54:16.616Z,1.20
2019-02-19T04:57:04.759Z,1.10
2019-02-19T04:59:45.525Z,1.10
2019-02-19T05:02:26.363Z,1.20
2019-02-19T05:05:07.445Z,1.10
2019-02-19T05:07:48.241Z,1.00
2019-02-19T05:10:28.854Z,1.00
2019-02-19T05:13:09.484Z,1.00
2019-02-19T05:15:50.546Z,1.00
2019-02-19T05:18:31.552Z,0.90
2019-02-19T05:21:12.278Z,1.00
2019-02-19T05:23:52.968Z,1.20
2019-02-19T05:26:33.925Z,1.30
2019-02-19T05:29:15.284Z,1.20
2019-02-19T05:31:56.219Z,1.20
2019-02-19T05:34:37.237Z,1.10
2019-02-19T05:37:18.321Z,1.00
2019-02-19T05:39:59.090Z,1.00
2019-02-19T05:42:40.057Z,1.10
2019-02-19T05:45:21.021Z,1.50
2019-02-19T05:48:01.997Z,1.40
2019-02-19T05:50:42.734Z,1.30
2019-02-19T05:53:23.517Z,1.20
2019-02-19T05:56:04.318Z,1.20
2019-02-19T05:58:45.283Z,1.20
2019-02-19T06:01:26.130Z,1.10
2019-02-19T06:04:07.215Z,1.00
2019-02-19T06:06:48.214Z,0.90
2019-02-19T06:09:29.562Z,0.90
2019-02-19T06:12:12.467Z,0.90
2019-02-19T06:14:53.013Z,1.10
2019-02-19T06:17:33.675Z,1.10
2019-02-19T06:20:14.410Z,1.20
2019-02-19T06:22:55.270Z,1.20
2019-02-19T06:25:24.221Z,1.20
2019-02-19T06:28:12.381Z,1.10
2019-02-19T06:31:00.590Z,1.10
2019-02-19T06:33:41.917Z,1.10
2019-02-19T06:36:22.317Z,1.20
2019-02-19T06:39:04.217Z,1.10
2019-02-19T06:41:45.520Z,1.10
2019-02-19T06:44:26.608Z,1.20
2019-02-19T06:47:07.290Z,1.30
2019-02-19T06:49:48.119Z,1.40
2019-02-19T06:52:28.669Z,1.30
2019-02-19T06:55:09.642Z,1.30
2019-02-19T06:57:50.392Z,1.20
2019-02-19T07:00:31.368Z,1.00
2019-02-19T07:06:17.528Z,0.90
2019-02-19T07:08:58.491Z,0.90
2019-02-19T07:11:39.124Z,1.10
2019-02-19T07:14:19.833Z,1.10
2019-02-19T07:17:01.314Z,1.20
2019-02-19T07:19:42.056Z,1.20
2019-02-19T07:22:22.637Z,1.20
2019-02-19T07:25:03.428Z,1.20
2019-02-19T07:27:44.147Z,1.20
2019-02-19T07:30:25.109Z,1.30
2019-02-19T07:33:05.879Z,1.30
2019-02-19T07:35:46.716Z,1.20
2019-02-19T07:38:27.718Z,1.30
2019-02-19T07:41:08.832Z,1.30
2019-02-19T07:43:49.593Z,1.30
2019-02-19T07:46:30.189Z,1.30
2019-02-19T07:49:11.129Z,1.40
2019-02-19T07:51:51.820Z,1.50
2019-02-19T07:54:32.690Z,1.70
2019-02-19T07:57:13.425Z,1.90
2019-02-19T07:59:54.582Z,2.00
2019-02-19T08:02:35.413Z,2.10
2019-02-19T08:05:16.060Z,2.10
2019-02-19T08:07:56.771Z,2.20
2019-02-19T08:10:37.955Z,2.30
2019-02-19T08:13:18.643Z,2.30
2019-02-19T08:15:59.630Z,2.40
2019-02-19T08:18:40.277Z,2.70
2019-02-19T08:21:21.113Z,3.20
2019-02-19T08:24:02.106Z,3.60
2019-02-19T08:26:42.948Z,3.90
2019-02-19T08:29:23.645Z,4.20
2019-02-19T08:32:04.548Z,4.60
2019-02-19T08:34:45.467Z,4.90
2019-02-19T08:37:26.192Z,5.20
2019-02-19T08:40:06.941Z,5.50
2019-02-19T08:42:47.713Z,5.80
2019-02-19T08:45:28.939Z,6.00
2019-02-19T08:48:09.707Z,6.20
2019-02-19T08:50:50.685Z,6.40
2019-02-19T08:53:31.481Z,6.60
2019-02-19T08:56:12.367Z,6.90
2019-02-19T08:58:52.869Z,7.10
2019-02-19T09:01:34.226Z,7.30
2019-02-19T09:04:15.109Z,7.40
2019-02-19T09:06:55.909Z,7.50
2019-02-19T09:09:36.525Z,7.60
2019-02-19T09:12:17.427Z,7.70
2019-02-19T09:14:58.138Z,7.90
2019-02-19T09:17:38.832Z,8.10
2019-02-19T09:20:19.630Z,8.20
2019-02-19T09:23:00.719Z,8.30
2019-02-19T09:25:41.202Z,8.40
2019-02-19T09:28:22.084Z,8.40
2019-02-19T09:31:02.843Z,8.50
2019-02-19T09:33:43.537Z,8.60
2019-02-19T09:36:24.719Z,8.60
2019-02-19T09:39:05.575Z,8.40
2019-02-19T09:41:46.698Z,8.50
2019-02-19T09:44:28.954Z,8.50
2019-02-19T09:47:09.931Z,8.50
2019-02-19T09:49:50.669Z,8.40
2019-02-19T09:52:31.442Z,8.40
2019-02-19T09:55:12.349Z,8.40
2019-02-19T09:57:53.141Z,8.50
2019-02-19T10:00:33.843Z,8.40
2019-02-19T10:03:14.735Z,8.40
2019-02-19T10:08:35.173Z,8.40
2019-02-19T10:11:16.152Z,8.30
2019-02-19T10:13:56.918Z,8.10
2019-02-19T10:16:41.658Z,8.10
2019-02-19T10:19:20.685Z,8.00
2019-02-19T10:22:01.956Z,8.00
2019-02-19T10:24:42.824Z,8.00
2019-02-19T10:30:08.876Z,8.10
2019-02-19T10:32:49.775Z,8.10
2019-02-19T10:35:30.817Z,8.10
2019-02-19T10:38:11.627Z,8.10
2019-02-19T10:40:52.565Z,8.10
2019-02-19T10:43:33.960Z,8.00
2019-02-19T10:46:14.824Z,8.10
2019-02-19T10:48:55.723Z,8.20
2019-02-19T10:51:36.456Z,8.20
2019-02-19T10:54:17.087Z,8.20
2019-02-19T10:56:58.413Z,8.30
2019-02-19T10:59:27.501Z,8.30
2019-02-19T11:02:15.691Z,8.30
2019-02-19T11:05:03.972Z,8.40
2019-02-19T11:07:45.153Z,8.40
2019-02-19T11:10:25.911Z,8.50
2019-02-19T11:13:06.753Z,8.50
2019-02-19T11:15:47.492Z,8.60
2019-02-19T11:18:28.990Z,8.60
2019-02-19T11:21:18.976Z,8.70
2019-02-19T11:23:52.409Z,8.80
2019-02-19T11:26:33.148Z,8.90
2019-02-19T11:29:14.222Z,8.80
2019-02-19T11:31:54.764Z,8.80
2019-02-19T11:34:36.111Z,8.90
2019-02-19T11:37:16.872Z,8.90
2019-02-19T11:39:58.752Z,9.00
2019-02-19T11:42:39.165Z,9.10
2019-02-19T11:45:19.913Z,9.10
2019-02-19T11:48:01.188Z,9.10
2019-02-19T11:50:42.100Z,9.20
2019-02-19T11:53:22.962Z,9.30
2019-02-19T11:56:03.993Z,9.40
2019-02-19T11:58:44.788Z,9.40
2019-02-19T12:01:25.604Z,9.40
2019-02-19T12:04:06.308Z,9.40
2019-02-19T12:06:47.103Z,9.40
2019-02-19T12:09:27.912Z,9.40
2019-02-19T12:12:08.560Z,9.50
2019-02-19T12:14:49.212Z,9.60
2019-02-19T12:17:30.173Z,9.60
2019-02-19T12:20:11.149Z,9.60
2019-02-19T12:22:52.304Z,9.60
2019-02-19T12:25:33.057Z,9.70
2019-02-19T12:28:14.386Z,9.70
2019-02-19T12:30:55.454Z,9.80
2019-02-19T12:33:36.586Z,9.80
2019-02-19T12:36:17.429Z,9.90
2019-02-19T12:38:58.687Z,9.90
2019-02-19T12:41:39.203Z,10.00
2019-02-19T12:44:19.982Z,10.10
2019-02-19T12:47:00.960Z,10.20
2019-02-19T12:49:41.493Z,10.30
2019-02-19T12:52:22.013Z,10.30
2019-02-19T12:55:02.842Z,10.50
2019-02-19T12:57:45.276Z,10.60
2019-02-19T13:00:26.404Z,10.60
2019-02-19T13:03:06.964Z,10.60
2019-02-19T13:05:47.681Z,10.80
2019-02-19T13:08:28.412Z,10.90
2019-02-19T13:11:09.640Z,11.10
2019-02-19T13:13:50.540Z,11.30
2019-02-19T13:16:31.674Z,11.50
2019-02-19T13:19:15.628Z,11.80
2019-02-19T13:21:56.181Z,12.00
2019-02-19T13:24:37.210Z,12.20
2019-02-19T13:27:18.055Z,12.30
2019-02-19T13:29:58.744Z,12.50
2019-02-19T13:32:39.401Z,12.70
2019-02-19T13:35:20.225Z,13.00
2019-02-19T13:38:01.092Z,13.30
2019-02-19T13:40:44.943Z,13.40
2019-02-19T13:43:25.533Z,13.60
2019-02-19T13:46:06.204Z,13.80
2019-02-19T13:48:46.861Z,13.90
2019-02-19T13:51:28.036Z,14.10
2019-02-19T13:54:15.781Z,14.00
2019-02-19T13:56:56.940Z,14.20
2019-02-19T13:59:37.730Z,14.40
2019-02-19T14:02:18.556Z,14.50
2019-02-19T14:04:59.629Z,14.80
2019-02-19T14:07:40.481Z,14.90
2019-02-19T14:10:21.370Z,15.10
2019-02-19T14:13:02.120Z,15.20
2019-02-19T14:18:50.845Z,15.50
2019-02-19T14:21:56.784Z,15.40
2019-02-19T14:24:59.072Z,15.40
2019-02-19T14:27:50.361Z,15.70
2019-02-19T14:30:50.596Z,15.90
2019-02-19T14:36:52.349Z,15.90
2019-02-19T14:39:52.636Z,16.10
2019-02-19T14:43:17.451Z,16.20
2019-02-19T14:46:01.882Z,16.30
2019-02-19T14:49:01.617Z,16.30
2019-02-19T14:52:04.899Z,16.40
2019-02-19T14:55:04.630Z,16.40
2019-02-19T14:58:07.337Z,16.40
2019-02-19T15:01:06.945Z,16.70
2019-02-19T15:04:06.553Z,16.80
2019-02-19T15:07:00.000Z,16.50
2019-02-19T15:09:51.201Z,16.20
2019-02-19T15:12:40.661Z,15.50
2019-02-19T15:15:43.401Z,14.70
2019-02-19T15:18:43.144Z,14.00
2019-02-19T15:21:42.868Z,13.30
2019-02-19T15:24:49.002Z,12.80
2019-02-19T15:27:35.892Z,12.50
2019-02-19T15:30:35.862Z,12.10
2019-02-19T15:33:26.986Z,11.90
2019-02-19T15:36:30.081Z,11.60
2019-02-19T15:39:21.233Z,11.40
2019-02-19T15:42:21.626Z,11.30
2019-02-19T15:45:24.288Z,11.20
2019-02-19T15:48:14.013Z,11.00
2019-02-19T16:00:01.415Z,10.70
2019-02-19T16:06:16.518Z,10.40
2019-02-19T16:09:06.777Z,10.20
2019-02-19T16:12:09.594Z,10.00
2019-02-19T16:15:09.859Z,9.90
2019-02-19T16:18:00.243Z,9.70
2019-02-19T16:20:59.952Z,9.60
2019-02-19T16:23:47.296Z,9.40
2019-02-19T16:26:47.175Z,9.30
2019-02-19T16:29:46.618Z,9.10
2019-02-19T16:32:34.516Z,9.00
2019-02-19T16:35:26.500Z,8.90
2019-02-19T16:38:32.327Z,8.80
2019-02-19T16:41:27.346Z,8.70
2019-02-19T16:44:16.778Z,8.60
2019-02-19T16:47:06.477Z,8.60
2019-02-19T16:49:56.429Z,8.50
2019-02-19T16:52:46.888Z,8.40
2019-02-19T16:55:36.382Z,8.30
2019-02-19T16:58:35.352Z,8.20
2019-02-19T17:01:35.196Z,8.10
2019-02-19T17:04:38.574Z,8.00
2019-02-19T17:07:26.614Z,8.00
2019-02-19T17:10:14.618Z,7.90
2019-02-19T17:13:21.842Z,7.90
2019-02-19T17:16:12.330Z,7.90
2019-02-19T17:19:07.564Z,7.90
2019-02-19T17:22:10.549Z,7.90
2019-02-19T17:25:16.498Z,7.80
2019-02-19T17:28:12.872Z,7.70
2019-02-19T17:31:06.357Z,7.70
2019-02-19T17:33:55.499Z,7.60
2019-02-19T17:36:46.309Z,7.60
2019-02-19T17:39:45.729Z,7.40
2019-02-19T17:42:35.914Z,7.30
2019-02-19T17:45:36.148Z,7.30
2019-02-19T17:48:35.778Z,7.10
2019-02-19T17:51:38.883Z,6.90
2019-02-19T17:54:44.252Z,6.70
2019-02-19T17:57:44.221Z,6.60
2019-02-19T18:00:40.648Z,6.50
2019-02-19T18:03:37.004Z,6.50
2019-02-19T18:09:38.794Z,6.70
2019-02-19T18:12:31.708Z,6.80
2019-02-19T18:15:31.211Z,6.70
2019-02-19T18:18:30.723Z,6.60
2019-02-19T18:21:11.965Z,6.60
2019-02-19T18:23:52.631Z,6.50
2019-02-19T18:26:33.689Z,6.40
2019-02-19T18:29:14.562Z,6.40
2019-02-19T18:31:55.074Z,6.40
2019-02-19T18:34:35.677Z,6.30
2019-02-19T18:37:16.674Z,6.20
2019-02-19T18:39:57.768Z,6.00
2019-02-19T18:42:38.628Z,5.90
2019-02-19T18:45:19.623Z,5.90
2019-02-19T18:48:00.398Z,5.90
2019-02-19T18:50:40.960Z,5.80
2019-02-19T18:53:21.494Z,5.80
2019-02-19T18:56:05.460Z,5.70
2019-02-19T18:58:46.149Z,5.70
2019-02-19T19:01:27.014Z,5.70
2019-02-19T19:04:07.893Z,5.70
2019-02-19T19:06:48.646Z,5.70
2019-02-19T19:09:29.533Z,5.60
2019-02-19T19:12:10.213Z,5.50
2019-02-19T19:14:51.177Z,5.50
2019-02-19T19:17:34.850Z,5.40
2019-02-19T19:20:15.819Z,5.30
2019-02-19T19:22:56.649Z,5.10
2019-02-19T19:25:37.734Z,5.00
2019-02-19T19:28:18.509Z,4.90
2019-02-19T19:30:59.631Z,4.90
2019-02-19T19:33:40.696Z,4.80
2019-02-19T19:36:21.422Z,4.80
2019-02-19T19:39:06.086Z,4.70
2019-02-19T19:41:47.089Z,4.70
2019-02-19T19:44:27.665Z,4.80
2019-02-19T19:47:08.404Z,4.80
2019-02-19T19:49:49.078Z,4.70
2019-02-19T19:52:30.057Z,4.70
2019-02-19T19:55:10.724Z,4.70
2019-02-19T19:57:51.333Z,4.90
2019-02-19T20:00:32.240Z,4.80
2019-02-19T20:03:13.433Z,4.80
2019-02-19T20:05:54.006Z,4.70
2019-02-19T20:08:34.776Z,4.60
2019-02-19T20:11:15.834Z,4.50
2019-02-19T20:13:56.870Z,4.40
2019-02-19T20:16:37.788Z,4.40
2019-02-19T20:19:18.783Z,4.50
2019-02-19T20:21:59.406Z,4.50
2019-02-19T20:24:40.225Z,4.50
2019-02-19T20:27:20.905Z,4.40
2019-02-19T20:30:02.139Z,4.30
2019-02-19T20:32:42.786Z,4.40
2019-02-19T20:35:23.432Z,4.30
2019-02-19T20:38:04.225Z,4.20
2019-02-19T20:40:45.182Z,4.10
2019-02-19T20:43:25.780Z,4.00
2019-02-19T20:46:06.716Z,4.00
2019-02-19T20:48:47.416Z,3.90
2019-02-19T20:51:36.178Z,3.90
2019-02-19T20:54:11.624Z,3.90
2019-02-19T20:56:52.696Z,3.90
2019-02-19T20:59:33.739Z,4.00
2019-02-19T21:02:14.524Z,4.10
2019-02-19T21:04:55.290Z,4.10
2019-02-19T21:07:36.609Z,4.10
2019-02-19T21:10:17.664Z,4.10
2019-02-19T21:12:58.539Z,4.00
2019-02-19T21:15:39.377Z,4.00
2019-02-19T21:18:20.242Z,3.90
2019-02-19T21:21:00.897Z,4.00
2019-02-19T21:23:41.835Z,3.90
2019-02-19T21:26:22.547Z,3.90
2019-02-19T21:29:03.386Z,3.90
2019-02-19T21:31:44.143Z,3.90
2019-02-19T21:34:25.349Z,3.80
2019-02-19T21:37:06.111Z,3.80
2019-02-19T21:39:46.820Z,3.80
2019-02-19T21:42:27.593Z,3.90
2019-02-19T21:45:08.728Z,3.90
2019-02-19T21:47:49.665Z,3.90
2019-02-19T21:50:30.679Z,3.80
2019-02-19T21:53:11.662Z,3.70
2019-02-19T21:55:52.272Z,3.60
2019-02-19T21:58:33.353Z,3.50
2019-02-19T22:01:14.178Z,3.50
2019-02-19T22:03:56.083Z,3.40
2019-02-19T22:06:37.333Z,3.40
2019-02-19T22:09:18.147Z,3.40
2019-02-19T22:11:58.942Z,3.40
2019-02-19T22:14:28.052Z,3.50
2019-02-19T22:17:16.221Z,3.50
2019-02-19T22:20:02.840Z,3.60
2019-02-19T22:22:39.628Z,3.50
2019-02-19T22:25:23.875Z,3.60
2019-02-19T22:28:04.389Z,3.60
2019-02-19T22:30:45.181Z,3.70
2019-02-19T22:33:25.891Z,3.80
2019-02-19T22:36:06.664Z,3.70
2019-02-19T22:38:47.619Z,3.50
2019-02-19T22:41:28.699Z,3.40
2019-02-19T22:44:09.569Z,3.30
2019-02-19T22:46:50.892Z,3.30
2019-02-19T22:49:19.942Z,3.20
2019-02-19T22:52:12.658Z,3.30
2019-02-19T22:55:10.081Z,3.20
2019-02-19T22:57:51.351Z,3.20
2019-02-19T23:00:51.380Z,3.30
2019-02-19T23:03:31.984Z,3.30
2019-02-19T23:06:13.201Z,3.30
2019-02-19T23:08:53.989Z,3.20
2019-02-19T23:11:35.285Z,3.10
2019-02-19T23:14:15.897Z,3.00
2019-02-19T23:16:56.790Z,3.10
2019-02-19T23:19:37.751Z,3.00
2019-02-19T23:22:21.572Z,3.00
2019-02-19T23:25:01.197Z,2.90
2019-02-19T23:27:42.132Z,2.80
2019-02-19T23:30:22.597Z,2.70
2019-02-19T23:33:03.227Z,2.60
2019-02-19T23:35:58.525Z,2.60
2019-02-19T23:38:39.098Z,2.60
2019-02-19T23:41:20.335Z,2.70
2019-02-19T23:44:01.182Z,2.80
2019-02-19T23:46:44.006Z,2.90
2019-02-19T23:49:25.536Z,2.90
2019-02-19T23:52:06.462Z,2.80
2019-02-19T23:54:47.227Z,2.80
2019-02-19T23:57:28.029Z,2.80
